createdAt,value
2022-09-23T00:02:03.720Z,3.30
2022-09-23T00:05:05.747Z,3.35
2022-09-23T00:08:27.649Z,3.63
2022-09-23T00:11:42.607Z,3.17
2022-09-23T00:14:50.734Z,3.65
2022-09-23T00:17:59.328Z,3.33
2022-09-23T00:21:12.647Z,3.20
2022-09-23T00:24:21.167Z,3.33
2022-09-23T00:27:35.652Z,3.17
2022-09-23T00:30:47.710Z,3.65
2022-09-23T00:33:59.339Z,3.10
2022-09-23T00:37:34.628Z,2.75
2022-09-23T00:40:36.361Z,3.27
2022-09-23T00:43:53.627Z,3.93
2022-09-23T00:47:02.973Z,3.00
2022-09-23T00:50:34.700Z,3.28
2022-09-23T00:53:45.364Z,3.62
2022-09-23T00:57:17.923Z,3.20
2022-09-23T01:00:39.575Z,3.20
2022-09-23T01:03:55.606Z,3.15
2022-09-23T01:07:30.872Z,3.17
2022-09-23T01:11:09.647Z,3.70
2022-09-23T01:14:52.507Z,3.00
2022-09-23T01:18:46.611Z,3.27
2022-09-23T01:22:09.650Z,2.72
2022-09-23T01:25:47.292Z,2.62
2022-09-23T01:29:28.615Z,3.03
2022-09-23T01:32:47.440Z,2.90
2022-09-23T01:36:21.678Z,3.17
2022-09-23T01:39:48.660Z,3.05
2022-09-23T01:43:06.064Z,2.70
2022-09-23T01:46:30.831Z,3.17
2022-09-23T01:49:51.676Z,3.10
2022-09-23T01:53:05.857Z,2.90
2022-09-23T01:56:28.629Z,3.17
2022-09-23T02:00:05.651Z,2.85
2022-09-23T02:03:43.852Z,3.22
2022-09-23T02:07:28.723Z,3.43
2022-09-23T02:11:07.894Z,2.90
2022-09-23T02:14:48.840Z,3.28
2022-09-23T02:18:31.694Z,3.30
2022-09-23T02:21:46.388Z,2.95
2022-09-23T02:24:55.692Z,2.93
2022-09-23T02:28:22.648Z,3.50
2022-09-23T02:31:38.510Z,3.35
2022-09-23T02:35:20.640Z,3.17
2022-09-23T02:38:45.638Z,3.65
2022-09-23T02:41:58.975Z,3.50
2022-09-23T02:45:13.669Z,3.87
2022-09-23T02:48:35.639Z,3.25
2022-09-23T02:51:39.261Z,3.78
2022-09-23T02:54:54.928Z,3.30
2022-09-23T02:58:29.699Z,3.60
2022-09-23T03:01:59.581Z,3.43
2022-09-23T03:05:27.984Z,3.72
2022-09-23T03:09:09.646Z,4.37
2022-09-23T03:12:27.356Z,3.47
2022-09-23T03:16:20.785Z,4.03
2022-09-23T03:20:05.306Z,4.40
2022-09-23T03:23:10.619Z,3.60
2022-09-23T03:26:35.655Z,3.75
2022-09-23T03:29:43.767Z,4.05
2022-09-23T03:32:54.693Z,3.30
2022-09-23T03:36:14.658Z,3.40
2022-09-23T03:39:34.641Z,3.50
2022-09-23T03:42:49.715Z,3.67
2022-09-23T03:45:58.936Z,3.62
2022-09-23T03:49:21.726Z,4.17
2022-09-23T03:52:36.664Z,3.77
2022-09-23T03:55:45.148Z,4.00
2022-09-23T03:58:53.667Z,3.50
2022-09-23T04:02:02.347Z,3.03
2022-09-23T04:05:11.659Z,4.17
2022-09-23T04:08:26.887Z,3.37
2022-09-23T04:11:41.715Z,3.47
2022-09-23T04:14:44.147Z,3.17
2022-09-23T04:17:58.669Z,3.75
2022-09-23T04:21:13.915Z,4.07
2022-09-23T04:24:16.579Z,3.27
2022-09-23T04:27:37.567Z,3.15
2022-09-23T04:30:40.599Z,3.20
2022-09-23T04:33:57.667Z,3.55
2022-09-23T04:37:06.078Z,3.00
2022-09-23T04:40:14.686Z,2.87
2022-09-23T04:43:29.673Z,3.67
2022-09-23T04:46:44.704Z,3.90
2022-09-23T04:49:55.527Z,4.30
2022-09-23T04:53:06.323Z,3.37
2022-09-23T04:56:24.752Z,3.97
2022-09-23T04:59:26.415Z,3.95
2022-09-23T05:02:40.668Z,3.85
2022-09-23T05:05:48.651Z,4.30
2022-09-23T05:09:07.152Z,3.90
2022-09-23T05:12:21.675Z,3.70
2022-09-23T05:15:29.684Z,3.83
2022-09-23T05:18:40.859Z,3.90
2022-09-23T05:21:55.692Z,4.30
2022-09-23T05:24:57.376Z,3.80
2022-09-23T05:28:11.727Z,4.10
2022-09-23T05:31:22.732Z,3.65
2022-09-23T05:34:37.740Z,4.22
2022-09-23T05:37:53.947Z,3.70
2022-09-23T05:41:00.773Z,4.07
2022-09-23T05:44:16.732Z,3.80
2022-09-23T05:47:31.695Z,4.62
2022-09-23T05:50:33.807Z,3.87
2022-09-23T05:53:49.732Z,4.03
2022-09-23T05:57:18.131Z,4.07
2022-09-23T06:00:27.787Z,4.00
2022-09-23T06:03:36.358Z,3.65
2022-09-23T06:06:47.847Z,4.72
2022-09-23T06:13:35.733Z,4.53
2022-09-23T06:16:38.317Z,4.17
2022-09-23T06:19:53.006Z,4.20
2022-09-23T06:23:07.367Z,3.80
2022-09-23T06:26:19.712Z,4.05
2022-09-23T06:29:34.742Z,3.97
2022-09-23T06:32:48.593Z,4.20
2022-09-23T06:36:09.737Z,3.75
2022-09-23T06:44:16.775Z,4.50
2022-09-23T06:47:56.672Z,6.30
2022-09-23T06:51:12.820Z,4.50
2022-09-23T06:54:52.606Z,4.57
2022-09-23T06:58:15.139Z,4.75
2022-09-23T07:01:39.382Z,4.57
2022-09-23T07:12:57.892Z,3.87
2022-09-23T07:16:32.843Z,3.78
2022-09-23T07:19:41.735Z,3.60
2022-09-23T07:30:58.874Z,3.40
2022-09-23T07:42:47.803Z,3.00
2022-09-23T07:45:59.614Z,2.80
2022-09-23T07:56:19.875Z,2.95
2022-09-23T08:00:02.458Z,3.00
2022-09-23T08:03:09.501Z,3.00
2022-09-23T08:06:42.197Z,3.78
2022-09-23T08:09:50.357Z,3.05
2022-09-23T08:12:59.076Z,3.05
2022-09-23T08:16:07.649Z,2.90
2022-09-23T08:24:40.111Z,3.42
2022-09-23T08:28:32.586Z,3.90
2022-09-23T08:31:53.892Z,3.40
2022-09-23T08:34:55.688Z,3.17
2022-09-23T08:42:17.196Z,3.22
2022-09-23T08:45:33.783Z,3.10
2022-09-23T08:49:23.798Z,3.40
2022-09-23T08:52:46.795Z,3.10
2022-09-23T08:55:51.193Z,3.23
2022-09-23T08:59:48.113Z,2.80
2022-09-23T09:03:28.512Z,3.05
2022-09-23T09:06:53.665Z,2.80
2022-09-23T09:10:31.462Z,3.50
2022-09-23T09:14:46.188Z,3.03
2022-09-23T09:21:59.670Z,2.87
2022-09-23T09:45:33.597Z,3.15
2022-09-23T09:49:18.904Z,3.10
2022-09-23T09:52:48.992Z,3.23
2022-09-23T10:00:49.049Z,3.20
2022-09-23T10:05:02.005Z,3.00
2022-09-23T10:08:59.639Z,3.50
2022-09-23T10:13:27.698Z,3.27
2022-09-23T10:25:00.084Z,2.97
2022-09-23T10:28:46.053Z,3.27
2022-09-23T10:40:21.838Z,2.90
2022-09-23T10:44:10.738Z,3.08
2022-09-23T10:55:14.409Z,2.80
2022-09-23T11:03:25.243Z,2.40
2022-09-23T11:07:16.200Z,3.07
2022-09-23T11:11:16.083Z,2.87
2022-09-23T11:14:35.003Z,2.60
2022-09-23T11:18:32.139Z,3.40
2022-09-23T11:22:27.424Z,2.72
2022-09-23T11:26:02.839Z,2.90
2022-09-23T11:29:48.759Z,3.10
2022-09-23T11:33:21.921Z,2.80
2022-09-23T11:36:59.016Z,2.55
2022-09-23T11:49:15.888Z,2.70
2022-09-23T11:56:35.446Z,2.00
2022-09-23T11:59:56.847Z,2.42
2022-09-23T12:07:00.870Z,2.67
2022-09-23T12:11:03.790Z,2.60
2022-09-23T12:14:39.449Z,2.65
2022-09-23T12:36:40.154Z,2.30
2022-09-23T12:43:36.908Z,2.20
2022-09-23T12:46:52.849Z,1.77
2022-09-23T12:54:39.700Z,2.60
2022-09-23T12:57:54.828Z,2.70
2022-09-23T13:01:07.723Z,2.73
2022-09-23T13:04:38.807Z,2.90
2022-09-23T13:07:51.859Z,2.10
2022-09-23T13:11:02.616Z,2.20
2022-09-23T13:14:27.560Z,2.00
2022-09-23T13:17:34.136Z,2.17
2022-09-23T13:20:48.878Z,2.70
2022-09-23T13:24:19.745Z,2.10
2022-09-23T13:28:34.331Z,2.22
2022-09-23T13:36:30.728Z,1.97
2022-09-23T13:40:29.380Z,1.92
2022-09-23T13:55:11.872Z,1.97
2022-09-23T13:59:14.335Z,2.67
2022-09-23T14:02:28.892Z,1.95
2022-09-23T14:05:44.904Z,2.08
2022-09-23T14:21:06.992Z,1.85
2022-09-23T14:37:58.853Z,1.73
2022-09-23T14:41:22.859Z,1.80
2022-09-23T14:44:32.088Z,1.62
2022-09-23T14:47:51.940Z,2.07
2022-09-23T14:51:04.862Z,2.10
2022-09-23T14:54:32.478Z,1.77
2022-09-23T14:57:40.958Z,3.58
2022-09-23T15:00:59.448Z,1.73
2022-09-23T15:04:19.906Z,2.13
2022-09-23T15:07:28.772Z,2.03
2022-09-23T15:10:46.983Z,1.45
2022-09-23T15:14:09.467Z,1.80
2022-09-23T15:17:34.762Z,1.50
2022-09-23T15:20:57.112Z,1.57
2022-09-23T15:23:58.738Z,2.17
2022-09-23T15:27:29.288Z,1.67
2022-09-23T15:30:31.548Z,2.22
2022-09-23T15:33:45.879Z,1.40
2022-09-23T15:37:01.701Z,1.73
2022-09-23T15:40:09.972Z,1.87
2022-09-23T15:43:22.130Z,1.30
2022-09-23T15:46:37.312Z,2.20
2022-09-23T15:50:03.021Z,1.23
2022-09-23T15:53:16.983Z,1.43
2022-09-23T15:56:25.946Z,1.70
2022-09-23T15:59:40.935Z,1.58
2022-09-23T16:02:56.868Z,1.40
2022-09-23T16:06:00.797Z,1.80
2022-09-23T16:09:16.157Z,1.77
2022-09-23T16:12:23.907Z,1.80
2022-09-23T16:15:32.940Z,1.50
2022-09-23T16:18:40.948Z,3.50
2022-09-23T16:21:55.957Z,1.70
2022-09-23T16:25:05.356Z,1.90
2022-09-23T16:28:13.929Z,1.83
2022-09-23T16:31:23.600Z,2.00
2022-09-23T16:34:31.917Z,1.87
2022-09-23T16:37:40.733Z,2.10
2022-09-23T16:40:55.017Z,2.00
2022-09-23T16:44:10.998Z,1.90
2022-09-23T16:47:15.941Z,1.90
2022-09-23T16:50:30.911Z,2.15
2022-09-23T16:53:39.954Z,1.98
2022-09-23T16:56:55.000Z,2.07
2022-09-23T17:00:06.581Z,1.80
2022-09-23T17:03:17.973Z,1.95
2022-09-23T17:06:32.912Z,2.08
2022-09-23T17:09:40.927Z,2.20
2022-09-23T17:12:49.374Z,1.97
2022-09-23T17:16:05.043Z,2.33
2022-09-23T17:19:15.148Z,2.05
2022-09-23T17:22:30.812Z,2.20
2022-09-23T17:25:45.952Z,2.37
2022-09-23T17:28:48.023Z,2.23
2022-09-23T17:32:02.946Z,2.70
2022-09-23T17:35:04.880Z,2.50
2022-09-23T17:38:29.309Z,2.35
2022-09-23T17:41:43.895Z,2.00
2022-09-23T17:44:45.549Z,2.50
2022-09-23T17:47:59.957Z,2.87
2022-09-23T17:51:14.914Z,2.45
2022-09-23T17:54:22.913Z,2.90
2022-09-23T17:57:31.572Z,2.53
2022-09-23T18:00:40.023Z,3.10
2022-09-23T18:03:54.271Z,2.63
2022-09-23T18:07:08.926Z,3.03
2022-09-23T18:10:10.524Z,2.90
2022-09-23T18:13:25.174Z,3.08
2022-09-23T18:16:43.139Z,3.40
2022-09-23T18:19:44.831Z,3.73
2022-09-23T18:23:08.963Z,4.25
2022-09-23T18:26:20.471Z,4.65
2022-09-23T18:29:29.245Z,4.45
2022-09-23T18:32:44.184Z,4.07
2022-09-23T18:35:45.834Z,4.20
2022-09-23T18:39:07.980Z,4.22
2022-09-23T18:42:23.042Z,4.62
2022-09-23T18:45:30.961Z,4.07
2022-09-23T18:48:39.911Z,3.90
2022-09-23T18:51:59.945Z,3.97
2022-09-23T18:55:01.662Z,4.05
2022-09-23T18:58:15.961Z,3.87
2022-09-23T19:01:21.722Z,4.20
2022-09-23T19:04:35.943Z,4.07
2022-09-23T19:07:44.926Z,3.93
2022-09-23T19:11:01.937Z,4.43
2022-09-23T19:14:18.057Z,3.90
2022-09-23T19:17:32.968Z,4.47
2022-09-23T19:20:40.951Z,4.60
2022-09-23T19:23:53.823Z,4.17
2022-09-23T19:27:02.058Z,4.15
2022-09-23T19:30:11.106Z,4.20
2022-09-23T19:33:25.973Z,4.18
2022-09-23T19:36:30.736Z,4.40
2022-09-23T19:40:12.135Z,4.40
2022-09-23T19:43:55.761Z,4.32
2022-09-23T19:47:06.247Z,4.32
2022-09-23T19:50:21.068Z,3.83
2022-09-23T19:53:35.952Z,3.93
2022-09-23T19:56:37.584Z,4.37
2022-09-23T19:59:51.959Z,4.40
2022-09-23T20:03:00.515Z,4.20
2022-09-23T20:06:10.723Z,4.43
2022-09-23T20:09:31.979Z,4.40
2022-09-23T20:12:39.983Z,4.93
2022-09-23T20:15:48.783Z,4.35
2022-09-23T20:19:04.031Z,4.35
2022-09-23T20:22:05.756Z,3.80
2022-09-23T20:25:19.980Z,4.57
2022-09-23T20:28:28.529Z,4.30
2022-09-23T20:31:37.041Z,4.90
2022-09-23T20:34:53.108Z,5.10
2022-09-23T20:37:54.752Z,4.80
2022-09-23T20:41:09.020Z,5.27
2022-09-23T20:44:17.799Z,5.15
2022-09-23T20:47:25.999Z,4.45
2022-09-23T20:50:34.520Z,5.45
2022-09-23T20:53:48.967Z,4.60
2022-09-23T20:56:56.974Z,5.23
2022-09-23T21:00:05.778Z,5.28
2022-09-23T21:03:14.967Z,4.72
2022-09-23T21:06:23.955Z,5.25
2022-09-23T21:09:38.979Z,4.77
2022-09-23T21:12:40.505Z,5.47
2022-09-23T21:15:55.055Z,4.82
2022-09-23T21:19:04.771Z,5.57
2022-09-23T21:22:13.023Z,4.93
2022-09-23T21:25:30.131Z,5.40
2022-09-23T21:28:41.971Z,5.70
2022-09-23T21:31:57.046Z,5.40
2022-09-23T21:35:11.988Z,6.00
2022-09-23T21:38:22.015Z,5.70
2022-09-23T21:41:36.991Z,5.60
2022-09-23T21:44:45.488Z,7.63
2022-09-23T21:47:53.967Z,5.35
2022-09-23T21:51:05.480Z,6.05
2022-09-23T21:54:18.976Z,6.00
2022-09-23T21:57:30.472Z,5.53
2022-09-23T22:00:46.060Z,6.40
2022-09-23T22:03:52.098Z,5.78
2022-09-23T22:07:07.077Z,6.53
2022-09-23T22:10:15.695Z,6.78
2022-09-23T22:13:23.979Z,6.47
2022-09-23T22:16:34.552Z,7.00
2022-09-23T22:19:59.297Z,6.50
2022-09-23T22:23:15.855Z,6.62
2022-09-23T22:26:32.462Z,5.65
2022-09-23T22:29:58.697Z,6.60
2022-09-23T22:33:29.903Z,6.80
2022-09-23T22:37:06.118Z,6.78
2022-09-23T22:41:01.966Z,6.82
2022-09-23T22:44:12.890Z,6.85
2022-09-23T22:47:44.090Z,7.17
2022-09-23T22:50:50.745Z,6.23
2022-09-23T22:54:08.320Z,6.47
2022-09-23T22:57:17.453Z,6.75
2022-09-23T23:00:26.379Z,6.68
2022-09-23T23:03:34.880Z,6.97
2022-09-23T23:06:50.046Z,7.40
2022-09-23T23:09:52.555Z,6.68
2022-09-23T23:13:07.002Z,7.15
2022-09-23T23:16:10.976Z,7.53
2022-09-23T23:19:26.126Z,6.40
2022-09-23T23:22:41.012Z,7.30
2022-09-23T23:25:42.643Z,7.10
2022-09-23T23:28:59.046Z,7.03
2022-09-23T23:32:07.453Z,6.45
2022-09-23T23:35:16.115Z,6.33
2022-09-23T23:38:31.564Z,6.63
2022-09-23T23:42:03.055Z,6.75
2022-09-23T23:45:31.354Z,6.70
2022-09-23T23:48:47.092Z,6.60
2022-09-23T23:51:55.988Z,5.83
2022-09-23T23:55:05.071Z,6.97
2022-09-23T23:58:21.008Z,6.75
